createdAt,value
2018-08-13T00:00:25.026Z,59.55
2018-08-13T00:01:25.018Z,59.45
2018-08-13T00:02:24.921Z,58.97
2018-08-13T00:03:24.874Z,59.27
2018-08-13T00:04:24.838Z,58.88
2018-08-13T00:05:24.840Z,57.92
2018-08-13T00:06:24.784Z,58.30
2018-08-13T00:07:24.771Z,57.75
2018-08-13T00:08:24.741Z,56.98
2018-08-13T00:09:24.712Z,57.46
2018-08-13T00:10:24.782Z,56.88
2018-08-13T00:11:24.686Z,57.94
2018-08-13T00:12:24.669Z,56.59
2018-08-13T00:13:24.661Z,56.98
2018-08-13T00:14:24.693Z,56.21
2018-08-13T00:15:24.727Z,56.79
2018-08-13T00:16:24.624Z,57.07
2018-08-13T00:17:24.705Z,57.85
2018-08-13T00:18:24.730Z,58.88
2018-08-13T00:19:24.697Z,58.23
2018-08-13T00:20:24.593Z,58.20
2018-08-13T00:21:24.425Z,58.20
2018-08-13T00:22:24.636Z,59.58
2018-08-13T00:23:24.372Z,59.36
2018-08-13T00:24:24.345Z,58.78
2018-08-13T00:25:24.329Z,60.23
2018-08-13T00:26:49.048Z,60.23
2018-08-13T00:28:23.113Z,60.45
2018-08-13T00:29:22.989Z,61.87
2018-08-13T00:31:20.595Z,61.77
2018-08-13T00:32:21.169Z,61.19
2018-08-13T00:34:21.154Z,61.99
2018-08-13T00:35:21.442Z,61.68
2018-08-13T00:37:18.119Z,61.77
2018-08-13T00:38:18.376Z,62.15
2018-08-13T00:40:15.781Z,60.64
2018-08-13T00:41:15.787Z,59.84
2018-08-13T00:43:16.277Z,60.42
2018-08-13T00:44:16.725Z,60.71
2018-08-13T00:46:24.541Z,59.84
2018-08-13T00:49:30.081Z,59.00
2018-08-13T00:50:28.969Z,59.00
2018-08-13T00:52:27.375Z,59.84
2018-08-13T00:53:26.868Z,59.68
2018-08-13T00:55:39.499Z,60.71
2018-08-13T00:56:39.181Z,60.80
2018-08-13T00:58:44.376Z,60.71
2018-08-13T00:59:44.022Z,60.61
2018-08-13T01:01:39.668Z,60.71
2018-08-13T01:02:39.775Z,61.58
2018-08-13T01:04:46.107Z,62.45
2018-08-13T01:05:44.728Z,62.93
2018-08-13T01:07:38.241Z,62.54
2018-08-13T01:08:38.733Z,63.12
2018-08-13T01:10:41.527Z,64.56
2018-08-13T01:11:40.572Z,63.12
2018-08-13T01:12:40.453Z,63.79
2018-08-13T01:13:40.374Z,63.79
2018-08-13T01:14:40.392Z,64.28
2018-08-13T01:15:40.765Z,63.79
2018-08-13T01:16:40.247Z,63.50
2018-08-13T01:17:40.036Z,64.86
2018-08-13T01:18:51.328Z,64.18
2018-08-13T01:19:41.833Z,63.60
2018-08-13T01:20:40.686Z,63.60
2018-08-13T01:21:40.375Z,63.31
2018-08-13T01:22:39.961Z,61.87
2018-08-13T01:23:39.877Z,61.58
2018-08-13T01:24:39.729Z,61.10
2018-08-13T01:25:39.712Z,61.19
2018-08-13T01:26:39.690Z,61.96
2018-08-13T01:27:39.684Z,63.21
2018-08-13T01:28:39.612Z,63.50
2018-08-13T01:29:39.672Z,62.45
2018-08-13T01:30:39.565Z,61.58
2018-08-13T01:31:39.540Z,60.52
2018-08-13T01:32:39.543Z,61.29
2018-08-13T01:33:39.492Z,60.90
2018-08-13T01:34:40.167Z,61.58
2018-08-13T01:35:39.464Z,61.77
2018-08-13T01:36:39.421Z,61.38
2018-08-13T01:37:39.409Z,61.48
2018-08-13T01:38:39.379Z,63.21
2018-08-13T01:39:39.437Z,63.79
2018-08-13T01:40:39.419Z,63.70
2018-08-13T01:41:39.325Z,62.15
2018-08-13T01:42:39.273Z,62.83
2018-08-13T01:43:39.269Z,63.95
2018-08-13T01:44:39.229Z,63.18
2018-08-13T01:45:39.295Z,63.57
2018-08-13T01:46:39.162Z,63.47
2018-08-13T01:47:39.219Z,63.67
2018-08-13T01:48:39.124Z,63.47
2018-08-13T01:49:39.185Z,63.47
2018-08-13T01:50:39.075Z,63.28
2018-08-13T01:51:39.098Z,63.28
2018-08-13T01:52:39.023Z,63.57
2018-08-13T01:53:38.985Z,64.82
2018-08-13T01:54:38.973Z,64.63
2018-08-13T01:55:38.944Z,65.20
2018-08-13T01:56:38.923Z,65.98
2018-08-13T01:57:38.910Z,67.33
2018-08-13T01:58:38.864Z,66.55
2018-08-13T01:59:38.885Z,67.81
2018-08-13T02:00:38.833Z,67.42
2018-08-13T02:03:53.235Z,66.94
2018-08-13T02:04:53.282Z,66.94
2018-08-13T02:06:46.254Z,66.75
2018-08-13T02:07:46.684Z,66.65
2018-08-13T02:09:44.288Z,68.00
2018-08-13T02:10:43.954Z,68.00
2018-08-13T02:12:49.417Z,66.85
2018-08-13T02:13:49.650Z,65.59
2018-08-13T02:15:53.707Z,67.23
2018-08-13T02:16:53.215Z,69.25
2018-08-13T02:18:53.421Z,68.32
2018-08-13T02:19:53.521Z,67.94
2018-08-13T02:21:58.207Z,65.14
2018-08-13T02:22:58.003Z,64.66
2018-08-13T02:25:02.799Z,66.11
2018-08-13T02:26:02.845Z,65.72
2018-08-13T02:27:03.000Z,64.86
2018-08-13T02:28:02.457Z,67.36
2018-08-13T02:29:02.406Z,66.49
2018-08-13T02:30:02.249Z,67.55
2018-08-13T02:31:02.261Z,66.49
2018-08-13T02:32:02.343Z,65.91
2018-08-13T02:33:02.295Z,65.91
2018-08-13T02:34:02.196Z,66.88
2018-08-13T02:35:02.206Z,65.33
2018-08-13T02:36:02.268Z,65.33
2018-08-13T02:37:02.064Z,66.11
2018-08-13T02:38:02.041Z,64.18
2018-08-13T02:39:02.058Z,63.31
2018-08-13T02:40:01.989Z,64.56
2018-08-13T02:41:03.945Z,64.18
2018-08-13T02:42:01.967Z,64.18
2018-08-13T02:43:01.944Z,64.56
2018-08-13T02:44:01.897Z,65.05
2018-08-13T02:45:01.983Z,66.11
2018-08-13T02:46:01.930Z,66.39
2018-08-13T02:47:01.823Z,66.39
2018-08-13T02:48:01.798Z,66.59
2018-08-13T02:49:20.511Z,66.39
2018-08-13T02:51:39.658Z,66.88
2018-08-13T02:52:13.043Z,67.65
2018-08-13T02:53:13.318Z,67.74
2018-08-13T02:54:12.481Z,68.99
2018-08-13T02:55:12.658Z,69.57
2018-08-13T02:56:12.270Z,69.77
2018-08-13T02:57:12.132Z,69.38
2018-08-13T02:58:12.137Z,69.48
2018-08-13T02:59:12.125Z,68.23
2018-08-13T03:00:12.052Z,67.07
2018-08-13T03:01:12.028Z,68.99
2018-08-13T03:02:12.022Z,65.63
2018-08-13T03:03:12.045Z,66.78
2018-08-13T03:04:11.954Z,67.55
2018-08-13T03:05:11.932Z,68.23
2018-08-13T03:06:12.025Z,67.84
2018-08-13T03:07:11.894Z,67.84
2018-08-13T03:08:12.012Z,67.84
2018-08-13T03:09:11.891Z,68.32
2018-08-13T03:10:11.808Z,69.48
2018-08-13T03:11:11.786Z,69.96
2018-08-13T03:12:11.844Z,70.54
2018-08-13T03:13:11.735Z,70.70
2018-08-13T03:14:11.705Z,69.38
2018-08-13T03:15:11.684Z,69.48
2018-08-13T03:16:11.683Z,70.73
2018-08-13T03:17:11.638Z,69.57
2018-08-13T03:18:11.617Z,70.83
2018-08-13T03:19:11.619Z,71.79
2018-08-13T03:20:11.751Z,72.47
2018-08-13T03:21:14.243Z,72.75
2018-08-13T03:22:11.530Z,71.89
2018-08-13T03:23:11.486Z,71.79
2018-08-13T03:24:11.464Z,72.66
2018-08-13T03:25:11.499Z,71.60
2018-08-13T03:26:11.412Z,70.73
2018-08-13T03:27:11.400Z,71.60
2018-08-13T03:28:11.482Z,71.98
2018-08-13T03:29:11.380Z,71.12
2018-08-13T03:30:11.309Z,72.75
2018-08-13T03:31:11.414Z,73.91
2018-08-13T03:32:11.306Z,74.10
2018-08-13T03:33:11.250Z,73.53
2018-08-13T03:34:11.215Z,74.01
2018-08-13T03:35:11.183Z,73.62
2018-08-13T03:36:11.159Z,74.01
2018-08-13T03:37:11.142Z,73.82
2018-08-13T03:38:11.140Z,73.82
2018-08-13T03:39:11.083Z,74.82
2018-08-13T03:40:11.087Z,72.75
2018-08-13T03:41:11.036Z,73.53
2018-08-13T03:42:23.471Z,73.43
2018-08-13T03:44:06.426Z,69.09
2018-08-13T03:45:05.849Z,67.74
2018-08-13T03:47:27.330Z,67.07
2018-08-13T03:48:09.281Z,65.85
2018-08-13T03:50:22.822Z,65.17
2018-08-13T03:51:22.628Z,64.40
2018-08-13T03:52:22.467Z,63.06
2018-08-13T03:53:21.927Z,62.86
2018-08-13T03:54:21.926Z,61.71
2018-08-13T03:55:21.597Z,61.83
2018-08-13T03:56:21.510Z,61.74
2018-08-13T03:57:21.585Z,61.54
2018-08-13T03:58:21.482Z,60.19
2018-08-13T03:59:21.493Z,60.28
2018-08-13T04:00:21.523Z,59.52
2018-08-13T04:01:21.574Z,59.90
2018-08-13T04:02:21.459Z,59.52
2018-08-13T04:03:21.349Z,59.61
2018-08-13T04:04:21.307Z,59.80
2018-08-13T04:05:21.426Z,59.80
2018-08-13T04:06:21.433Z,59.80
2018-08-13T04:07:24.164Z,59.80
2018-08-13T04:08:21.394Z,60.38
2018-08-13T04:09:22.356Z,60.68
2018-08-13T04:10:21.381Z,60.58
2018-08-13T04:11:21.368Z,60.48
2018-08-13T04:12:21.225Z,60.28
2018-08-13T04:13:21.302Z,60.96
2018-08-13T04:14:21.273Z,60.77
2018-08-13T04:15:21.132Z,60.58
2018-08-13T04:16:21.129Z,61.93
2018-08-13T04:17:21.090Z,61.74
2018-08-13T04:18:21.105Z,62.09
2018-08-13T04:19:21.238Z,61.80
2018-08-13T04:20:21.013Z,62.09
2018-08-13T04:21:21.412Z,62.86
2018-08-13T04:22:21.055Z,62.57
2018-08-13T04:23:20.899Z,63.44
2018-08-13T04:24:40.101Z,65.66
2018-08-13T04:26:21.755Z,75.68
2018-08-13T04:29:54.868Z,75.90
2018-08-13T04:30:54.762Z,75.96
2018-08-13T04:32:51.583Z,76.15
2018-08-13T04:33:50.799Z,73.90
2018-08-13T04:35:50.904Z,71.97
2018-08-13T04:36:52.098Z,71.49
2018-08-13T04:37:51.330Z,72.61
2018-08-13T04:38:51.493Z,70.98
2018-08-13T04:40:03.968Z,72.80
2018-08-13T04:40:52.721Z,69.92
2018-08-13T04:41:51.111Z,70.59
2018-08-13T04:42:50.705Z,68.38
2018-08-13T04:43:50.987Z,66.74
2018-08-13T04:44:49.500Z,65.40
2018-08-13T04:45:50.012Z,65.69
2018-08-13T04:46:49.912Z,60.97
2018-08-13T04:47:49.429Z,60.88
2018-08-13T04:48:49.897Z,62.80
2018-08-13T04:50:12.978Z,60.59
2018-08-13T04:51:46.312Z,62.41
2018-08-13T04:52:46.985Z,62.23
2018-08-13T04:54:50.752Z,66.36
2018-08-13T04:55:49.532Z,65.97
2018-08-13T04:57:50.312Z,68.15
2018-08-13T04:58:50.259Z,64.12
2018-08-13T05:00:54.134Z,64.12
2018-08-13T05:01:53.478Z,63.35
2018-08-13T05:04:00.050Z,65.66
2018-08-13T05:05:00.373Z,63.54
2018-08-13T05:07:04.699Z,65.27
2018-08-13T05:08:05.899Z,62.29
2018-08-13T05:10:09.202Z,59.76
2018-08-13T05:11:09.487Z,62.84
2018-08-13T05:13:15.226Z,63.60
2018-08-13T05:14:15.157Z,60.66
2018-08-13T05:16:31.467Z,61.04
2018-08-13T05:17:11.525Z,64.31
2018-08-13T05:19:15.893Z,62.58
2018-08-13T05:20:16.347Z,58.64
2018-08-13T05:22:17.002Z,58.54
2018-08-13T05:23:17.609Z,58.92
2018-08-13T05:25:17.920Z,56.62
